LGL700 LEMH-LEIB
Flight info
| Callsign | LGL700 |
|---|---|
| Flight time | 0h 36m |
| Altitude | 23000 |
| Route | NEVIC2C NEVIC NEVIC5V |
| Aircraft | B738/M-SDE2E3FGHIJ1RWXY/LB1V1 |
Departure
| Time | 2026-05-07 15:37 |
|---|---|
| Airport | Menorca Airport (LEMH) |
Arrival
| Time | 2026-05-07 16:14 |
|---|---|
| Airport | Ibiza Airport (LEIB) |
| Time | Latitude | Longitude | Altitude | Speed | Heading |
|---|---|---|---|---|---|
| 2026-05-07 15:12 | 39.86472 | 4.22399 | 285 ft | 0 kts | 98° |
| 2026-05-07 15:29 | 39.86474 | 4.22382 | 285 ft | 2 kts | 97° |
| 2026-05-07 15:29 | 39.86475 | 4.22362 | 285 ft | 2 kts | 98° |
| 2026-05-07 15:30 | 39.86477 | 4.22350 | 285 ft | 2 kts | 96° |
| 2026-05-07 15:30 | 39.86475 | 4.22331 | 285 ft | 2 kts | 57° |
| 2026-05-07 15:30 | 39.86464 | 4.22317 | 285 ft | 2 kts | 33° |
| 2026-05-07 15:30 | 39.86455 | 4.22311 | 285 ft | 0 kts | 12° |
| 2026-05-07 15:31 | 39.86447 | 4.22310 | 285 ft | 0 kts | 8° |
| 2026-05-07 15:32 | 39.86449 | 4.22310 | 285 ft | 1 kts | 8° |
| 2026-05-07 15:33 | 39.86502 | 4.22321 | 285 ft | 12 kts | 3° |
| 2026-05-07 15:33 | 39.86544 | 4.22245 | 286 ft | 11 kts | 278° |
| 2026-05-07 15:33 | 39.86534 | 4.22165 | 289 ft | 8 kts | 216° |
| 2026-05-07 15:33 | 39.86440 | 4.22138 | 289 ft | 19 kts | 189° |
| 2026-05-07 15:34 | 39.86280 | 4.22105 | 289 ft | 26 kts | 189° |
| 2026-05-07 15:34 | 39.86082 | 4.22066 | 290 ft | 30 kts | 188° |
| 2026-05-07 15:34 | 39.85887 | 4.22024 | 291 ft | 28 kts | 189° |
| 2026-05-07 15:34 | 39.85695 | 4.21985 | 287 ft | 25 kts | 189° |
| 2026-05-07 15:35 | 39.85541 | 4.21952 | 282 ft | 22 kts | 189° |
| 2026-05-07 15:35 | 39.85380 | 4.21920 | 278 ft | 24 kts | 188° |
| 2026-05-07 15:35 | 39.85214 | 4.21887 | 277 ft | 22 kts | 189° |
| 2026-05-07 15:35 | 39.85130 | 4.21818 | 277 ft | 10 kts | 281° |
| 2026-05-07 15:36 | 39.85141 | 4.21732 | 279 ft | 8 kts | 278° |
| 2026-05-07 15:36 | 39.85156 | 4.21650 | 279 ft | 8 kts | 318° |
| 2026-05-07 15:36 | 39.85212 | 4.21645 | 280 ft | 3 kts | 8° |
| 2026-05-07 15:36 | 39.85220 | 4.21646 | 280 ft | 4 kts | 8° |
| 2026-05-07 15:37 | 39.85402 | 4.21683 | 281 ft | 61 kts | 9° |
| 2026-05-07 15:37 | 39.86052 | 4.21817 | 297 ft | 125 kts | 9° |
| 2026-05-07 15:37 | 39.87066 | 4.22020 | 512 ft | 158 kts | 12° |
| 2026-05-07 15:37 | 39.88124 | 4.22236 | 1273 ft | 157 kts | 12° |
| 2026-05-07 15:38 | 39.89202 | 4.22446 | 1974 ft | 157 kts | 13° |
| 2026-05-07 15:38 | 39.90300 | 4.22657 | 2424 ft | 168 kts | 13° |
| 2026-05-07 15:38 | 39.91478 | 4.22890 | 2877 ft | 177 kts | 13° |
| 2026-05-07 15:38 | 39.92738 | 4.23140 | 3356 ft | 186 kts | 13° |
| 2026-05-07 15:39 | 39.94079 | 4.23352 | 3717 ft | 203 kts | 11° |
| 2026-05-07 15:39 | 39.95528 | 4.23617 | 4052 ft | 222 kts | 13° |
| 2026-05-07 15:39 | 39.97106 | 4.23967 | 4485 ft | 239 kts | 14° |
| 2026-05-07 15:39 | 39.98795 | 4.24344 | 5006 ft | 253 kts | 9° |
| 2026-05-07 15:40 | 40.00584 | 4.24008 | 5429 ft | 275 kts | 335° |
| 2026-05-07 15:40 | 40.02023 | 4.22309 | 6098 ft | 287 kts | 302° |
| 2026-05-07 15:40 | 40.02681 | 4.19881 | 6937 ft | 287 kts | 281° |
| 2026-05-07 15:40 | 40.02763 | 4.17301 | 7666 ft | 291 kts | 258° |
| 2026-05-07 15:41 | 40.01971 | 4.14947 | 8456 ft | 289 kts | 230° |
| 2026-05-07 15:41 | 40.00461 | 4.13250 | 9303 ft | 287 kts | 208° |
| 2026-05-07 15:41 | 39.98639 | 4.12224 | 10088 ft | 289 kts | 199° |
| 2026-05-07 15:41 | 39.96731 | 4.11350 | 10645 ft | 301 kts | 198° |
| 2026-05-07 15:42 | 39.94706 | 4.10439 | 11127 ft | 316 kts | 198° |
| 2026-05-07 15:42 | 39.92567 | 4.09471 | 11593 ft | 332 kts | 198° |
| 2026-05-07 15:42 | 39.90338 | 4.08458 | 12057 ft | 347 kts | 198° |
| 2026-05-07 15:42 | 39.88022 | 4.07400 | 12527 ft | 362 kts | 198° |
| 2026-05-07 15:43 | 39.85624 | 4.06302 | 13147 ft | 372 kts | 198° |
| 2026-05-07 15:43 | 39.83179 | 4.05183 | 13958 ft | 376 kts | 198° |
| 2026-05-07 15:43 | 39.80711 | 4.04053 | 14797 ft | 379 kts | 198° |
| 2026-05-07 15:43 | 39.78223 | 4.02863 | 15647 ft | 382 kts | 200° |
| 2026-05-07 15:44 | 39.75783 | 4.01523 | 16434 ft | 386 kts | 204° |
| 2026-05-07 15:44 | 39.73395 | 3.99944 | 17162 ft | 392 kts | 208° |
| 2026-05-07 15:44 | 39.71024 | 3.98099 | 17934 ft | 395 kts | 212° |
| 2026-05-07 15:44 | 39.68768 | 3.96092 | 18744 ft | 398 kts | 215° |
| 2026-05-07 15:45 | 39.66576 | 3.93898 | 19520 ft | 401 kts | 218° |
| 2026-05-07 15:45 | 39.64474 | 3.91535 | 20247 ft | 404 kts | 223° |
| 2026-05-07 15:45 | 39.62529 | 3.88944 | 21046 ft | 405 kts | 227° |
| 2026-05-07 15:45 | 39.60663 | 3.86165 | 21763 ft | 408 kts | 229° |
| 2026-05-07 15:46 | 39.57028 | 3.80524 | 22876 ft | 415 kts | 229° |
| 2026-05-07 15:46 | 39.55170 | 3.77665 | 22913 ft | 415 kts | 229° |
| 2026-05-07 15:46 | 39.53313 | 3.74806 | 22916 ft | 414 kts | 229° |
| 2026-05-07 15:47 | 39.51459 | 3.71942 | 22916 ft | 413 kts | 229° |
| 2026-05-07 15:47 | 39.49634 | 3.69110 | 22910 ft | 412 kts | 230° |
| 2026-05-07 15:47 | 39.47803 | 3.66261 | 22907 ft | 413 kts | 230° |
| 2026-05-07 15:47 | 39.45978 | 3.63413 | 22912 ft | 413 kts | 230° |
| 2026-05-07 15:48 | 39.44140 | 3.60540 | 22910 ft | 414 kts | 230° |
| 2026-05-07 15:48 | 39.42314 | 3.57682 | 22907 ft | 413 kts | 230° |
| 2026-05-07 15:48 | 39.40492 | 3.54827 | 22903 ft | 413 kts | 230° |
| 2026-05-07 15:48 | 39.38661 | 3.51954 | 22902 ft | 412 kts | 230° |
| 2026-05-07 15:49 | 39.36850 | 3.49112 | 22899 ft | 412 kts | 230° |
| 2026-05-07 15:49 | 39.35117 | 3.46181 | 22895 ft | 414 kts | 235° |
| 2026-05-07 15:49 | 39.33643 | 3.42987 | 22895 ft | 415 kts | 241° |
| 2026-05-07 15:49 | 39.32455 | 3.39627 | 22895 ft | 414 kts | 246° |
| 2026-05-07 15:50 | 39.31451 | 3.36107 | 22896 ft | 417 kts | 249° |
| 2026-05-07 15:50 | 39.30564 | 3.32559 | 22895 ft | 417 kts | 250° |
| 2026-05-07 15:50 | 39.29733 | 3.28994 | 22897 ft | 417 kts | 251° |
| 2026-05-07 15:50 | 39.28925 | 3.25425 | 22898 ft | 417 kts | 251° |
| 2026-05-07 15:51 | 39.28112 | 3.21816 | 22900 ft | 416 kts | 251° |
| 2026-05-07 15:51 | 39.27307 | 3.18260 | 22898 ft | 417 kts | 251° |
| 2026-05-07 15:51 | 39.26487 | 3.14670 | 22893 ft | 418 kts | 251° |
| 2026-05-07 15:51 | 39.25669 | 3.11118 | 22893 ft | 416 kts | 251° |
| 2026-05-07 15:52 | 39.24838 | 3.07531 | 22889 ft | 416 kts | 251° |
| 2026-05-07 15:52 | 39.24008 | 3.03966 | 22898 ft | 417 kts | 251° |
| 2026-05-07 15:52 | 39.23169 | 3.00374 | 22899 ft | 415 kts | 251° |
| 2026-05-07 15:52 | 39.22337 | 2.96830 | 22891 ft | 415 kts | 251° |
| 2026-05-07 15:53 | 39.21502 | 2.93282 | 22895 ft | 416 kts | 251° |
| 2026-05-07 15:53 | 39.20665 | 2.89730 | 22895 ft | 416 kts | 251° |
| 2026-05-07 15:53 | 39.19827 | 2.86182 | 22897 ft | 416 kts | 251° |
| 2026-05-07 15:53 | 39.18971 | 2.82650 | 22892 ft | 416 kts | 249° |
| 2026-05-07 15:54 | 39.17985 | 2.79122 | 22891 ft | 414 kts | 247° |
| 2026-05-07 15:54 | 39.16929 | 2.75700 | 22893 ft | 414 kts | 246° |
| 2026-05-07 15:54 | 39.15830 | 2.72274 | 22890 ft | 414 kts | 245° |
| 2026-05-07 15:54 | 39.14719 | 2.68842 | 22889 ft | 415 kts | 245° |
| 2026-05-07 15:55 | 39.13623 | 2.65440 | 22886 ft | 415 kts | 246° |
| 2026-05-07 15:55 | 39.12528 | 2.62011 | 22891 ft | 415 kts | 246° |
| 2026-05-07 15:55 | 39.11436 | 2.58564 | 22886 ft | 415 kts | 246° |
| 2026-05-07 15:55 | 39.10350 | 2.55117 | 22888 ft | 415 kts | 246° |
| 2026-05-07 15:56 | 39.09271 | 2.51682 | 22887 ft | 416 kts | 246° |
| 2026-05-07 15:56 | 39.08193 | 2.48245 | 22888 ft | 415 kts | 246° |
| 2026-05-07 15:56 | 39.07118 | 2.44813 | 22886 ft | 415 kts | 246° |
| 2026-05-07 15:56 | 39.06040 | 2.41373 | 22886 ft | 416 kts | 246° |
| 2026-05-07 15:57 | 39.04964 | 2.37941 | 22887 ft | 415 kts | 246° |
| 2026-05-07 15:57 | 39.03890 | 2.34518 | 22888 ft | 415 kts | 245° |
| 2026-05-07 15:57 | 39.02802 | 2.31055 | 22887 ft | 415 kts | 245° |
| 2026-05-07 15:57 | 39.01735 | 2.27663 | 22889 ft | 415 kts | 245° |
| 2026-05-07 15:58 | 39.00648 | 2.24210 | 22883 ft | 415 kts | 245° |
| 2026-05-07 15:58 | 38.99570 | 2.20791 | 22888 ft | 414 kts | 245° |
| 2026-05-07 15:58 | 38.98492 | 2.17380 | 22888 ft | 415 kts | 245° |
| 2026-05-07 15:58 | 38.97392 | 2.13903 | 22888 ft | 423 kts | 245° |
| 2026-05-07 15:59 | 38.96263 | 2.10348 | 22858 ft | 436 kts | 245° |
| 2026-05-07 15:59 | 38.95121 | 2.06751 | 22560 ft | 438 kts | 245° |
| 2026-05-07 15:59 | 38.93992 | 2.03191 | 22118 ft | 428 kts | 245° |
| 2026-05-07 15:59 | 38.92873 | 1.99663 | 21567 ft | 421 kts | 246° |
| 2026-05-07 16:00 | 38.91787 | 1.96241 | 20961 ft | 415 kts | 245° |
| 2026-05-07 16:00 | 38.90744 | 1.92842 | 20336 ft | 411 kts | 248° |
| 2026-05-07 16:00 | 38.89865 | 1.89380 | 19718 ft | 414 kts | 251° |
| 2026-05-07 16:00 | 38.89086 | 1.85787 | 19057 ft | 417 kts | 253° |
| 2026-05-07 16:01 | 38.88370 | 1.82224 | 18403 ft | 419 kts | 254° |
| 2026-05-07 16:01 | 38.87662 | 1.78577 | 17737 ft | 420 kts | 254° |
| 2026-05-07 16:01 | 38.86959 | 1.74948 | 17069 ft | 421 kts | 254° |
| 2026-05-07 16:01 | 38.86248 | 1.71322 | 16385 ft | 421 kts | 254° |
| 2026-05-07 16:02 | 38.85522 | 1.67695 | 15709 ft | 420 kts | 254° |
| 2026-05-07 16:02 | 38.84788 | 1.64085 | 15021 ft | 420 kts | 254° |
| 2026-05-07 16:02 | 38.84051 | 1.60495 | 14330 ft | 420 kts | 253° |
| 2026-05-07 16:02 | 38.83296 | 1.56891 | 13618 ft | 419 kts | 253° |
| 2026-05-07 16:03 | 38.82529 | 1.53364 | 13082 ft | 412 kts | 253° |
| 2026-05-07 16:03 | 38.81751 | 1.49862 | 12810 ft | 399 kts | 253° |
| 2026-05-07 16:03 | 38.81000 | 1.46514 | 12652 ft | 383 kts | 252° |
| 2026-05-07 16:03 | 38.80232 | 1.43331 | 12398 ft | 369 kts | 248° |
| 2026-05-07 16:04 | 38.79250 | 1.40381 | 12057 ft | 359 kts | 243° |
| 2026-05-07 16:04 | 38.78130 | 1.37580 | 11709 ft | 350 kts | 240° |
| 2026-05-07 16:04 | 38.76967 | 1.34877 | 11271 ft | 338 kts | 239° |
| 2026-05-07 16:04 | 38.75849 | 1.32312 | 10781 ft | 326 kts | 239° |
| 2026-05-07 16:05 | 38.74770 | 1.29808 | 10255 ft | 315 kts | 240° |
| 2026-05-07 16:05 | 38.73744 | 1.27387 | 9768 ft | 307 kts | 240° |
| 2026-05-07 16:05 | 38.72743 | 1.24999 | 9240 ft | 303 kts | 240° |
| 2026-05-07 16:05 | 38.71767 | 1.22660 | 8798 ft | 297 kts | 241° |
| 2026-05-07 16:06 | 38.70815 | 1.20374 | 8359 ft | 291 kts | 241° |
| 2026-05-07 16:06 | 38.69861 | 1.18083 | 7910 ft | 287 kts | 242° |
| 2026-05-07 16:06 | 38.68934 | 1.15859 | 7462 ft | 282 kts | 242° |
| 2026-05-07 16:06 | 38.68023 | 1.13672 | 7019 ft | 279 kts | 242° |
| 2026-05-07 16:07 | 38.67127 | 1.11504 | 6590 ft | 276 kts | 245° |
| 2026-05-07 16:07 | 38.66655 | 1.09152 | 6101 ft | 272 kts | 273° |
| 2026-05-07 16:07 | 38.67113 | 1.06903 | 5679 ft | 260 kts | 306° |
| 2026-05-07 16:07 | 38.68393 | 1.05437 | 5363 ft | 248 kts | 340° |
| 2026-05-07 16:08 | 38.70062 | 1.05084 | 5041 ft | 240 kts | 8° |
| 2026-05-07 16:08 | 38.71589 | 1.05734 | 4798 ft | 230 kts | 34° |
| 2026-05-07 16:08 | 38.72721 | 1.07125 | 4561 ft | 225 kts | 51° |
| 2026-05-07 16:08 | 38.73701 | 1.08668 | 4312 ft | 223 kts | 50° |
| 2026-05-07 16:09 | 38.74710 | 1.10151 | 4056 ft | 220 kts | 49° |
| 2026-05-07 16:09 | 38.75721 | 1.11607 | 3806 ft | 218 kts | 49° |
| 2026-05-07 16:09 | 38.76723 | 1.13073 | 3554 ft | 214 kts | 49° |
| 2026-05-07 16:09 | 38.77681 | 1.14489 | 3305 ft | 211 kts | 49° |
| 2026-05-07 16:10 | 38.78525 | 1.16007 | 3078 ft | 206 kts | 62° |
| 2026-05-07 16:10 | 38.79091 | 1.17638 | 2971 ft | 193 kts | 65° |
| 2026-05-07 16:10 | 38.79662 | 1.19122 | 2909 ft | 182 kts | 61° |
| 2026-05-07 16:10 | 38.80279 | 1.20530 | 2688 ft | 178 kts | 61° |
| 2026-05-07 16:11 | 38.80862 | 1.21907 | 2447 ft | 176 kts | 63° |
| 2026-05-07 16:11 | 38.81430 | 1.23282 | 2208 ft | 173 kts | 62° |
| 2026-05-07 16:11 | 38.81996 | 1.24635 | 1973 ft | 171 kts | 62° |
| 2026-05-07 16:11 | 38.82556 | 1.25974 | 1739 ft | 168 kts | 62° |
| 2026-05-07 16:12 | 38.83100 | 1.27277 | 1514 ft | 166 kts | 62° |
| 2026-05-07 16:12 | 38.83642 | 1.28576 | 1281 ft | 161 kts | 62° |
| 2026-05-07 16:12 | 38.84148 | 1.29789 | 1096 ft | 147 kts | 63° |
| 2026-05-07 16:12 | 38.84616 | 1.30911 | 920 ft | 137 kts | 63° |
| 2026-05-07 16:13 | 38.85070 | 1.31998 | 705 ft | 137 kts | 63° |
| 2026-05-07 16:13 | 38.85516 | 1.33059 | 535 ft | 136 kts | 64° |
| 2026-05-07 16:13 | 38.85969 | 1.34155 | 375 ft | 136 kts | 61° |
| 2026-05-07 16:13 | 38.86415 | 1.35208 | 188 ft | 136 kts | 64° |
| 2026-05-07 16:14 | 38.86857 | 1.36282 | 24 ft | 135 kts | 63° |
| 2026-05-07 16:14 | 38.87233 | 1.37189 | 24 ft | 81 kts | 62° |
| 2026-05-07 16:14 | 38.87414 | 1.37622 | 27 ft | 36 kts | 61° |
| 2026-05-07 16:14 | 38.87528 | 1.37804 | 26 ft | 24 kts | 41° |
| 2026-05-07 16:15 | 38.87635 | 1.37901 | 26 ft | 11 kts | 30° |
| 2026-05-07 16:15 | 38.87695 | 1.37871 | 27 ft | 11 kts | 273° |
| 2026-05-07 16:15 | 38.87665 | 1.37781 | 29 ft | 12 kts | 241° |
| 2026-05-07 16:15 | 38.87614 | 1.37658 | 30 ft | 17 kts | 242° |
| 2026-05-07 16:16 | 38.87559 | 1.37524 | 33 ft | 16 kts | 242° |
| 2026-05-07 16:16 | 38.87503 | 1.37388 | 31 ft | 18 kts | 242° |
| 2026-05-07 16:16 | 38.87460 | 1.37277 | 31 ft | 5 kts | 270° |
| 2026-05-07 16:16 | 38.87482 | 1.37250 | 32 ft | 3 kts | 334° |
| 2026-05-07 16:17 | 38.87503 | 1.37237 | 33 ft | 2 kts | 333° |
| 2026-05-07 16:17 | 38.87518 | 1.37227 | 34 ft | 3 kts | 332° |
| 2026-05-07 16:17 | 38.87530 | 1.37220 | 34 ft | 1 kts | 332° |
| 2026-05-07 16:17 | 38.87545 | 1.37209 | 35 ft | 0 kts | 332° |